createdAt,value
2019-05-07T00:00:43.617Z,968.51
2019-05-07T00:01:42.322Z,968.52
2019-05-07T00:02:42.715Z,968.52
2019-05-07T00:03:42.192Z,968.48
2019-05-07T00:04:42.630Z,968.47
2019-05-07T00:05:42.612Z,968.44
2019-05-07T00:06:40.376Z,968.45
2019-05-07T00:07:42.383Z,968.42
2019-05-07T00:08:40.299Z,968.45
2019-05-07T00:09:40.212Z,968.40
2019-05-07T00:10:42.301Z,968.35
2019-05-07T00:11:42.458Z,968.38
2019-05-07T00:12:40.077Z,968.39
2019-05-07T00:13:43.891Z,968.40
2019-05-07T00:14:39.933Z,968.39
2019-05-07T00:15:41.872Z,968.38
2019-05-07T00:16:42.025Z,968.39
2019-05-07T00:17:39.800Z,968.37
2019-05-07T00:18:39.708Z,968.38
2019-05-07T00:19:39.656Z,968.37
2019-05-07T00:20:39.596Z,968.33
2019-05-07T00:21:39.541Z,968.34
2019-05-07T00:22:41.829Z,968.38
2019-05-07T00:23:39.460Z,968.38
2019-05-07T00:24:39.374Z,968.37
2019-05-07T00:25:39.319Z,968.31
2019-05-07T00:26:39.267Z,968.33
2019-05-07T00:27:39.251Z,968.32
2019-05-07T00:28:39.155Z,968.39
2019-05-07T00:29:39.096Z,968.33
2019-05-07T00:30:39.041Z,968.34
2019-05-07T00:31:39.008Z,968.32
2019-05-07T00:32:38.955Z,968.31
2019-05-07T00:33:38.877Z,968.30
2019-05-07T00:34:38.814Z,968.28
2019-05-07T00:35:38.806Z,968.28
2019-05-07T00:36:38.704Z,968.29
2019-05-07T00:37:38.648Z,968.30
2019-05-07T00:38:38.593Z,968.21
2019-05-07T00:39:38.537Z,968.24
2019-05-07T00:40:38.509Z,968.20
2019-05-07T00:41:38.431Z,968.23
2019-05-07T00:42:38.372Z,968.18
2019-05-07T00:43:38.345Z,968.17
2019-05-07T00:44:38.259Z,968.15
2019-05-07T00:45:38.204Z,968.19
2019-05-07T00:46:38.149Z,968.23
2019-05-07T00:47:38.130Z,968.19
2019-05-07T00:48:38.069Z,968.17
2019-05-07T00:49:37.982Z,968.18
2019-05-07T00:50:37.927Z,968.19
2019-05-07T00:51:37.870Z,968.20
2019-05-07T00:52:37.814Z,968.17
2019-05-07T00:53:37.790Z,968.23
2019-05-07T00:54:37.703Z,968.20
2019-05-07T00:55:37.647Z,968.21
2019-05-07T00:56:37.593Z,968.18
2019-05-07T00:57:37.566Z,968.20
2019-05-07T00:58:37.479Z,968.23
2019-05-07T00:59:37.423Z,968.20
2019-05-07T01:00:37.369Z,968.20
2019-05-07T01:01:37.316Z,968.13
2019-05-07T01:02:37.288Z,968.17
2019-05-07T01:03:37.198Z,968.14
2019-05-07T01:04:37.143Z,968.12
2019-05-07T01:05:37.119Z,968.12
2019-05-07T01:06:37.040Z,968.09
2019-05-07T01:07:36.978Z,968.11
2019-05-07T01:08:36.924Z,968.10
2019-05-07T01:09:36.902Z,968.06
2019-05-07T01:10:36.840Z,968.04
2019-05-07T01:11:36.755Z,968.06
2019-05-07T01:12:36.698Z,968.04
2019-05-07T01:13:36.665Z,968.06
2019-05-07T01:14:36.591Z,968.03
2019-05-07T01:15:36.529Z,968.09
2019-05-07T01:16:36.477Z,968.10
2019-05-07T01:17:36.422Z,968.10
2019-05-07T01:18:36.388Z,968.08
2019-05-07T01:19:36.310Z,968.11
2019-05-07T01:20:36.253Z,968.11
2019-05-07T01:21:36.198Z,968.12
2019-05-07T01:22:36.152Z,968.12
2019-05-07T01:23:36.128Z,968.09
2019-05-07T01:24:36.027Z,968.07
2019-05-07T01:25:35.971Z,968.08
2019-05-07T01:26:35.917Z,968.07
2019-05-07T01:27:35.863Z,968.08
2019-05-07T01:28:35.837Z,968.05
2019-05-07T01:29:35.784Z,968.09
2019-05-07T01:30:35.696Z,968.09
2019-05-07T01:31:35.673Z,968.09
2019-05-07T01:32:35.584Z,968.05
2019-05-07T01:33:35.527Z,968.05
2019-05-07T01:34:35.472Z,968.04
2019-05-07T01:35:35.413Z,968.08
2019-05-07T01:36:35.391Z,968.08
2019-05-07T01:37:35.305Z,968.04
2019-05-07T01:38:35.250Z,968.08
2019-05-07T01:39:35.191Z,968.08
2019-05-07T01:40:35.134Z,968.09
2019-05-07T01:41:35.202Z,968.09
2019-05-07T01:42:36.748Z,968.06
2019-05-07T01:43:34.970Z,968.08
2019-05-07T01:44:34.914Z,968.08
2019-05-07T01:45:45.352Z,968.06
2019-05-07T01:46:34.836Z,968.09
2019-05-07T01:47:34.750Z,968.07
2019-05-07T01:48:34.690Z,968.08
2019-05-07T01:49:34.635Z,968.09
2019-05-07T01:50:34.581Z,968.10
2019-05-07T01:51:34.554Z,968.09
2019-05-07T01:52:34.469Z,968.07
2019-05-07T01:53:34.410Z,968.07
2019-05-07T01:54:34.354Z,968.09
2019-05-07T01:55:34.301Z,968.08
2019-05-07T01:56:34.292Z,968.08
2019-05-07T01:57:34.189Z,968.09
2019-05-07T01:58:34.133Z,968.08
2019-05-07T01:59:34.079Z,968.11
2019-05-07T02:00:34.020Z,968.09
2019-05-07T02:01:35.836Z,968.08
2019-05-07T02:02:33.914Z,968.09
2019-05-07T02:03:33.856Z,968.11
2019-05-07T02:04:33.799Z,968.08
2019-05-07T02:05:33.775Z,968.10
2019-05-07T02:06:33.686Z,968.07
2019-05-07T02:07:33.666Z,968.09
2019-05-07T02:08:33.574Z,968.07
2019-05-07T02:09:34.020Z,968.09
2019-05-07T02:10:33.465Z,968.09
2019-05-07T02:11:33.407Z,968.08
2019-05-07T02:12:33.353Z,968.08
2019-05-07T02:13:33.838Z,968.11
2019-05-07T02:14:33.262Z,968.10
2019-05-07T02:15:33.184Z,968.12
2019-05-07T02:16:33.169Z,968.12
2019-05-07T02:17:33.072Z,968.10
2019-05-07T02:18:33.018Z,968.08
2019-05-07T02:19:33.172Z,968.08
2019-05-07T02:20:32.906Z,968.10
2019-05-07T02:21:33.060Z,968.06
2019-05-07T02:22:32.790Z,968.08
2019-05-07T02:23:33.122Z,968.07
2019-05-07T02:24:33.920Z,968.09
2019-05-07T02:25:32.913Z,968.10
2019-05-07T02:26:32.599Z,968.06
2019-05-07T02:27:32.984Z,968.06
2019-05-07T02:28:33.043Z,968.07
2019-05-07T02:29:32.605Z,968.06
2019-05-07T02:30:34.984Z,968.09
2019-05-07T02:31:33.599Z,968.09
2019-05-07T02:32:33.421Z,968.08
2019-05-07T02:33:35.011Z,968.10
2019-05-07T02:34:34.274Z,968.07
2019-05-07T02:35:33.329Z,968.05
2019-05-07T02:36:34.023Z,968.07
2019-05-07T02:37:45.902Z,968.10
2019-05-07T02:38:34.002Z,968.06
2019-05-07T02:39:33.254Z,968.10
2019-05-07T02:40:33.904Z,968.09
2019-05-07T02:41:33.026Z,968.06
2019-05-07T02:42:33.603Z,968.08
2019-05-07T02:43:33.751Z,968.08
2019-05-07T02:44:32.508Z,968.09
2019-05-07T02:45:33.273Z,968.09
2019-05-07T02:46:35.245Z,968.05
2019-05-07T02:47:33.225Z,968.08
2019-05-07T02:48:33.250Z,968.07
2019-05-07T02:49:32.709Z,968.05
2019-05-07T02:50:32.978Z,968.08
2019-05-07T02:51:33.493Z,968.07
2019-05-07T02:52:32.460Z,968.01
2019-05-07T02:53:33.627Z,968.05
2019-05-07T02:54:32.784Z,968.01
2019-05-07T02:55:33.558Z,968.05
2019-05-07T02:56:33.272Z,968.08
2019-05-07T02:57:33.929Z,968.06
2019-05-07T02:58:33.136Z,968.01
2019-05-07T02:59:33.370Z,968.02
2019-05-07T03:00:33.249Z,968.03
2019-05-07T03:01:33.293Z,968.00
2019-05-07T03:02:33.107Z,968.05
2019-05-07T03:03:33.231Z,968.04
2019-05-07T03:04:33.366Z,968.01
2019-05-07T03:05:30.390Z,968.06
2019-05-07T03:06:33.608Z,968.06
2019-05-07T03:07:33.192Z,968.04
2019-05-07T03:08:32.858Z,968.08
2019-05-07T03:09:32.656Z,968.06
2019-05-07T03:10:30.141Z,968.03
2019-05-07T03:11:30.050Z,968.04
2019-05-07T03:12:33.263Z,968.04
2019-05-07T03:13:29.938Z,968.00
2019-05-07T03:14:32.281Z,968.02
2019-05-07T03:15:32.863Z,968.03
2019-05-07T03:16:39.541Z,968.04
2019-05-07T03:17:29.716Z,968.05
2019-05-07T03:18:33.131Z,968.02
2019-05-07T03:19:29.604Z,968.04
2019-05-07T03:20:29.581Z,968.03
2019-05-07T03:21:29.494Z,968.02
2019-05-07T03:22:29.438Z,968.02
2019-05-07T03:23:29.380Z,968.00
2019-05-07T03:24:29.324Z,968.04
2019-05-07T03:25:29.289Z,968.02
2019-05-07T03:26:29.211Z,968.01
2019-05-07T03:27:29.157Z,967.99
2019-05-07T03:28:29.130Z,968.01
2019-05-07T03:29:29.042Z,967.99
2019-05-07T03:30:28.987Z,967.96
2019-05-07T03:31:28.934Z,967.98
2019-05-07T03:32:28.897Z,967.97
2019-05-07T03:33:28.852Z,967.99
2019-05-07T03:34:28.795Z,967.99
2019-05-07T03:35:28.739Z,968.02
2019-05-07T03:36:28.648Z,967.99
2019-05-07T03:37:33.210Z,968.01
2019-05-07T03:38:28.552Z,967.98
2019-05-07T03:39:28.480Z,967.96
2019-05-07T03:40:28.465Z,967.98
2019-05-07T03:41:28.398Z,967.98
2019-05-07T03:42:28.313Z,967.98
2019-05-07T03:43:28.256Z,967.98
2019-05-07T03:44:28.197Z,967.98
2019-05-07T03:45:28.144Z,968.00
2019-05-07T03:46:28.121Z,968.00
2019-05-07T03:47:28.031Z,968.03
2019-05-07T03:48:28.004Z,968.05
2019-05-07T03:49:27.918Z,968.07
2019-05-07T03:50:27.866Z,968.04
2019-05-07T03:51:27.805Z,968.02
2019-05-07T03:52:27.779Z,968.02
2019-05-07T03:53:27.692Z,968.05
2019-05-07T03:54:27.635Z,968.07
2019-05-07T03:55:27.585Z,968.03
2019-05-07T03:56:27.524Z,968.05
2019-05-07T03:57:27.497Z,967.99
2019-05-07T03:58:27.410Z,968.02
2019-05-07T03:59:27.353Z,968.05
2019-05-07T04:00:27.299Z,968.03
2019-05-07T04:01:27.240Z,968.03
2019-05-07T04:02:27.216Z,968.03
2019-05-07T04:03:27.129Z,968.04
2019-05-07T04:04:27.075Z,968.04
2019-05-07T04:05:27.051Z,968.03
2019-05-07T04:06:26.963Z,968.05
2019-05-07T04:07:26.904Z,968.00
2019-05-07T04:08:26.855Z,968.02
2019-05-07T04:09:26.821Z,968.04
2019-05-07T04:10:26.739Z,968.04
2019-05-07T04:11:26.711Z,968.03
2019-05-07T04:12:26.623Z,968.01
2019-05-07T04:13:26.597Z,968.03
2019-05-07T04:14:26.513Z,968.02
2019-05-07T04:15:26.453Z,968.04
2019-05-07T04:16:26.397Z,968.05
2019-05-07T04:17:27.234Z,968.04
2019-05-07T04:18:26.308Z,968.05
2019-05-07T04:19:26.229Z,968.05
2019-05-07T04:20:26.172Z,968.07
2019-05-07T04:21:26.118Z,968.05
2019-05-07T04:22:28.929Z,968.08
2019-05-07T04:23:26.040Z,968.05
2019-05-07T04:24:25.984Z,968.07
2019-05-07T04:25:25.927Z,968.06
2019-05-07T04:26:25.839Z,968.03
2019-05-07T04:27:25.780Z,968.08
2019-05-07T04:28:25.758Z,968.05
2019-05-07T04:29:25.667Z,968.06
2019-05-07T04:30:25.610Z,968.05
2019-05-07T04:31:25.590Z,968.06
2019-05-07T04:32:25.497Z,968.05
2019-05-07T04:33:25.456Z,968.05
2019-05-07T04:34:25.384Z,968.06
2019-05-07T04:35:25.327Z,968.04
2019-05-07T04:36:25.303Z,968.11
2019-05-07T04:37:25.246Z,968.12
2019-05-07T04:38:25.158Z,968.09
2019-05-07T04:39:25.142Z,968.09
2019-05-07T04:40:25.059Z,968.07
2019-05-07T04:41:25.020Z,968.10
2019-05-07T04:42:25.038Z,968.08
2019-05-07T04:43:24.877Z,968.12
2019-05-07T04:44:24.822Z,968.12
2019-05-07T04:45:24.765Z,968.13
2019-05-07T04:46:24.745Z,968.11
2019-05-07T04:47:40.030Z,968.15
2019-05-07T04:48:24.591Z,968.15
2019-05-07T04:49:24.567Z,968.12
2019-05-07T04:50:37.902Z,968.13
2019-05-07T04:51:24.425Z,968.12
2019-05-07T04:52:24.369Z,968.14
2019-05-07T04:53:24.311Z,968.09
2019-05-07T04:54:24.289Z,968.07
2019-05-07T04:55:24.198Z,968.10
2019-05-07T04:56:24.153Z,968.12
2019-05-07T04:57:24.091Z,968.11
2019-05-07T04:58:26.482Z,968.12
2019-05-07T04:59:24.071Z,968.13
2019-05-07T05:00:23.924Z,968.13
2019-05-07T05:01:23.910Z,968.14
2019-05-07T05:02:23.805Z,968.14
2019-05-07T05:03:24.173Z,968.15
2019-05-07T05:04:30.307Z,968.18
2019-05-07T05:05:23.960Z,968.13
2019-05-07T05:06:24.337Z,968.16
2019-05-07T05:07:23.542Z,968.16
2019-05-07T05:08:23.822Z,968.15
2019-05-07T05:09:23.594Z,968.15
2019-05-07T05:10:23.500Z,968.19
2019-05-07T05:11:23.887Z,968.18
2019-05-07T05:12:23.242Z,968.15
2019-05-07T05:13:23.749Z,968.18
2019-05-07T05:14:23.132Z,968.17
2019-05-07T05:15:23.106Z,968.18
2019-05-07T05:16:23.019Z,968.18
2019-05-07T05:17:22.960Z,968.21
2019-05-07T05:18:22.908Z,968.18
2019-05-07T05:19:23.122Z,968.18
2019-05-07T05:20:22.829Z,968.20
2019-05-07T05:21:22.899Z,968.19
2019-05-07T05:22:22.678Z,968.19
2019-05-07T05:23:22.857Z,968.19
2019-05-07T05:24:22.565Z,968.17
2019-05-07T05:25:22.781Z,968.21
2019-05-07T05:26:22.455Z,968.20
2019-05-07T05:27:22.655Z,968.21
2019-05-07T05:28:22.343Z,968.24
2019-05-07T05:29:22.837Z,968.23
2019-05-07T05:30:22.275Z,968.24
2019-05-07T05:31:22.407Z,968.23
2019-05-07T05:32:22.700Z,968.23
2019-05-07T05:33:23.450Z,968.22
2019-05-07T05:34:22.334Z,968.24
2019-05-07T05:35:22.264Z,968.25
2019-05-07T05:36:22.305Z,968.27
2019-05-07T05:37:22.672Z,968.27
2019-05-07T05:38:22.256Z,968.26
2019-05-07T05:39:22.483Z,968.31
2019-05-07T05:40:22.683Z,968.28
2019-05-07T05:41:22.620Z,968.31
2019-05-07T05:42:22.572Z,968.30
2019-05-07T05:43:22.383Z,968.31
2019-05-07T05:44:22.748Z,968.32
2019-05-07T05:45:21.832Z,968.33
2019-05-07T05:46:22.638Z,968.34
2019-05-07T05:47:22.189Z,968.35
2019-05-07T05:48:22.448Z,968.40
2019-05-07T05:49:22.961Z,968.37
2019-05-07T05:50:21.879Z,968.38
2019-05-07T05:51:22.804Z,968.36
2019-05-07T05:52:22.086Z,968.34
2019-05-07T05:53:21.849Z,968.37
2019-05-07T05:54:22.314Z,968.38
2019-05-07T05:55:22.683Z,968.38
2019-05-07T05:56:22.738Z,968.35
2019-05-07T05:57:22.866Z,968.33
2019-05-07T05:58:24.009Z,968.34
2019-05-07T05:59:25.334Z,968.33
2019-05-07T06:00:22.123Z,968.36
2019-05-07T06:01:22.591Z,968.35
2019-05-07T06:02:22.656Z,968.36
2019-05-07T06:03:22.586Z,968.34
2019-05-07T06:04:22.161Z,968.35
2019-05-07T06:05:22.083Z,968.36
2019-05-07T06:06:21.957Z,968.41
2019-05-07T06:07:22.565Z,968.35
2019-05-07T06:08:20.120Z,968.36
2019-05-07T06:09:21.913Z,968.38
2019-05-07T06:10:22.314Z,968.38
2019-05-07T06:11:21.836Z,968.39
2019-05-07T06:12:21.980Z,968.35
2019-05-07T06:13:19.843Z,968.41
2019-05-07T06:14:22.065Z,968.36
2019-05-07T06:15:22.068Z,968.35
2019-05-07T06:16:21.927Z,968.40
2019-05-07T06:17:19.622Z,968.40
2019-05-07T06:18:23.481Z,968.40
2019-05-07T06:19:19.543Z,968.36
2019-05-07T06:20:19.498Z,968.38
2019-05-07T06:21:19.405Z,968.34
2019-05-07T06:22:19.350Z,968.37
2019-05-07T06:23:19.293Z,968.39
2019-05-07T06:24:19.241Z,968.42
2019-05-07T06:25:19.216Z,968.41
2019-05-07T06:26:19.134Z,968.41
2019-05-07T06:27:19.074Z,968.45
2019-05-07T06:28:19.024Z,968.45
2019-05-07T06:29:20.204Z,968.44
2019-05-07T06:30:18.951Z,968.43
2019-05-07T06:31:18.860Z,968.43
2019-05-07T06:32:18.805Z,968.42
2019-05-07T06:33:18.747Z,968.44
2019-05-07T06:34:18.692Z,968.44
2019-05-07T06:35:19.463Z,968.43
2019-05-07T06:36:18.585Z,968.42
2019-05-07T06:37:18.529Z,968.44
2019-05-07T06:38:18.472Z,968.45
2019-05-07T06:39:18.419Z,968.39
2019-05-07T06:40:20.373Z,968.43
2019-05-07T06:41:18.314Z,968.45
2019-05-07T06:42:18.258Z,968.42
2019-05-07T06:43:18.200Z,968.42
2019-05-07T06:44:18.147Z,968.46
2019-05-07T06:45:18.127Z,968.46
2019-05-07T06:46:18.040Z,968.47
2019-05-07T06:47:17.983Z,968.43
2019-05-07T06:48:33.104Z,968.43
2019-05-07T06:49:17.879Z,968.38
2019-05-07T06:50:17.864Z,968.41
2019-05-07T06:51:17.794Z,968.44
2019-05-07T06:52:17.712Z,968.43
2019-05-07T06:53:17.658Z,968.46
2019-05-07T06:54:17.641Z,968.45
2019-05-07T06:55:17.589Z,968.43
2019-05-07T06:56:17.497Z,968.42
2019-05-07T06:57:17.442Z,968.43
2019-05-07T06:58:17.389Z,968.47
2019-05-07T06:59:17.335Z,968.46
2019-05-07T07:00:17.315Z,968.46
2019-05-07T07:01:17.233Z,968.49
2019-05-07T07:02:17.209Z,968.44
2019-05-07T07:03:17.129Z,968.48
2019-05-07T07:04:17.067Z,968.42
2019-05-07T07:05:17.014Z,968.43
2019-05-07T07:06:16.966Z,968.43
2019-05-07T07:07:27.418Z,968.43
2019-05-07T07:08:16.852Z,968.41
2019-05-07T07:09:16.799Z,968.41
2019-05-07T07:10:16.743Z,968.45
2019-05-07T07:11:16.690Z,968.46
2019-05-07T07:12:16.674Z,968.44
2019-05-07T07:13:16.585Z,968.45
2019-05-07T07:14:16.531Z,968.43
2019-05-07T07:15:16.479Z,968.44
2019-05-07T07:16:16.429Z,968.43
2019-05-07T07:17:16.406Z,968.44
2019-05-07T07:18:16.323Z,968.43
2019-05-07T07:19:16.266Z,968.43
2019-05-07T07:20:16.213Z,968.39
2019-05-07T07:21:16.160Z,968.38
2019-05-07T07:22:16.146Z,968.39
2019-05-07T07:23:16.091Z,968.39
2019-05-07T07:24:16.002Z,968.35
2019-05-07T07:25:15.949Z,968.34
2019-05-07T07:26:15.897Z,968.37
2019-05-07T07:27:15.842Z,968.38
2019-05-07T07:28:15.821Z,968.38
2019-05-07T07:29:15.738Z,968.39
2019-05-07T07:30:15.685Z,968.41
2019-05-07T07:31:15.630Z,968.41
2019-05-07T07:32:15.577Z,968.37
2019-05-07T07:33:15.568Z,968.40
2019-05-07T07:34:15.477Z,968.40
2019-05-07T07:35:15.420Z,968.42
2019-05-07T07:36:15.371Z,968.39
2019-05-07T07:37:15.905Z,968.40
2019-05-07T07:38:15.307Z,968.39
2019-05-07T07:39:15.209Z,968.42
2019-05-07T07:40:15.161Z,968.41
2019-05-07T07:41:15.108Z,968.43
2019-05-07T07:42:15.055Z,968.35
2019-05-07T07:43:15.034Z,968.37
2019-05-07T07:44:14.953Z,968.39
2019-05-07T07:45:14.900Z,968.39
2019-05-07T07:46:16.501Z,968.36
2019-05-07T07:47:14.799Z,968.35
2019-05-07T07:48:14.780Z,968.37
2019-05-07T07:49:15.288Z,968.39
2019-05-07T07:50:14.637Z,968.40
2019-05-07T07:51:14.725Z,968.37
2019-05-07T07:52:14.535Z,968.39
2019-05-07T07:53:14.515Z,968.37
2019-05-07T07:54:14.430Z,968.36
2019-05-07T07:55:14.376Z,968.37
2019-05-07T07:56:14.324Z,968.34
2019-05-07T07:57:14.271Z,968.33
2019-05-07T07:58:14.255Z,968.32
2019-05-07T07:59:14.172Z,968.32
2019-05-07T08:00:14.146Z,968.33
2019-05-07T08:01:14.069Z,968.30
2019-05-07T08:02:14.017Z,968.33
2019-05-07T08:03:13.962Z,968.34
2019-05-07T08:04:13.911Z,968.33
2019-05-07T08:05:13.892Z,968.31
2019-05-07T08:06:13.807Z,968.30
2019-05-07T08:07:13.810Z,968.28
2019-05-07T08:08:13.703Z,968.31
2019-05-07T08:09:13.654Z,968.32
2019-05-07T08:10:13.600Z,968.30
2019-05-07T08:11:13.545Z,968.31
2019-05-07T08:12:13.533Z,968.31
2019-05-07T08:13:13.451Z,968.33
2019-05-07T08:14:13.430Z,968.27
2019-05-07T08:15:20.684Z,968.33
2019-05-07T08:16:13.290Z,968.29
2019-05-07T08:17:13.280Z,968.30
2019-05-07T08:18:13.203Z,968.28
2019-05-07T08:19:21.854Z,968.31
2019-05-07T08:20:13.087Z,968.28
2019-05-07T08:21:13.037Z,968.30
2019-05-07T08:22:12.982Z,968.30
2019-05-07T08:23:12.932Z,968.30
2019-05-07T08:24:12.926Z,968.31
2019-05-07T08:25:12.832Z,968.30
2019-05-07T08:26:12.805Z,968.29
2019-05-07T08:27:15.123Z,968.27
2019-05-07T08:28:12.678Z,968.25
2019-05-07T08:29:12.671Z,968.25
2019-05-07T08:30:12.579Z,968.22
2019-05-07T08:31:12.522Z,968.24
2019-05-07T08:32:12.655Z,968.25
2019-05-07T08:33:14.619Z,968.22
2019-05-07T08:34:14.169Z,968.24
2019-05-07T08:35:14.237Z,968.27
2019-05-07T08:36:14.898Z,968.24
2019-05-07T08:37:12.222Z,968.28
2019-05-07T08:38:12.786Z,968.34
2019-05-07T08:39:13.050Z,968.22
2019-05-07T08:40:12.846Z,968.21
2019-05-07T08:41:12.052Z,968.30
2019-05-07T08:42:12.359Z,968.23
2019-05-07T08:43:12.563Z,968.26
2019-05-07T08:44:15.098Z,968.15
2019-05-07T08:45:12.011Z,968.30
2019-05-07T08:46:12.026Z,968.13
2019-05-07T08:47:12.299Z,968.18
2019-05-07T08:48:12.581Z,968.14
2019-05-07T08:49:12.092Z,968.12
2019-05-07T08:50:11.871Z,968.26
2019-05-07T08:51:11.906Z,968.22
2019-05-07T08:52:12.040Z,968.24
2019-05-07T08:53:13.195Z,968.15
2019-05-07T08:54:12.319Z,968.18
2019-05-07T08:55:12.541Z,968.20
2019-05-07T08:56:12.464Z,968.16
2019-05-07T08:57:12.110Z,968.12
2019-05-07T08:58:12.048Z,968.11
2019-05-07T08:59:12.416Z,968.13
2019-05-07T09:00:12.358Z,968.11
2019-05-07T09:01:11.910Z,968.14
2019-05-07T09:02:12.565Z,968.17
2019-05-07T09:03:20.074Z,968.15
2019-05-07T09:04:13.284Z,968.14
2019-05-07T09:05:12.033Z,968.09
2019-05-07T09:06:11.785Z,968.09
2019-05-07T09:07:16.198Z,968.06
2019-05-07T09:08:12.542Z,968.05
2019-05-07T09:09:12.872Z,968.07
2019-05-07T09:10:12.514Z,968.07
2019-05-07T09:11:10.580Z,968.04
2019-05-07T09:12:12.418Z,968.05
2019-05-07T09:13:12.473Z,968.04
2019-05-07T09:14:12.583Z,968.03
2019-05-07T09:15:12.292Z,968.05
2019-05-07T09:16:12.721Z,968.04
2019-05-07T09:17:12.526Z,968.04
2019-05-07T09:18:12.263Z,968.00
2019-05-07T09:19:12.617Z,968.02
2019-05-07T09:20:12.014Z,968.01
2019-05-07T09:21:12.312Z,968.00
2019-05-07T09:22:12.514Z,968.06
2019-05-07T09:23:13.184Z,967.99
2019-05-07T09:24:11.948Z,967.99
2019-05-07T09:25:09.906Z,968.01
2019-05-07T09:26:09.869Z,967.96
2019-05-07T09:27:12.035Z,967.98
2019-05-07T09:28:11.788Z,967.99
2019-05-07T09:29:11.700Z,967.95
2019-05-07T09:30:09.669Z,967.94
2019-05-07T09:31:09.651Z,967.95
2019-05-07T09:32:11.960Z,967.92
2019-05-07T09:33:09.526Z,967.87
2019-05-07T09:34:11.675Z,967.84
2019-05-07T09:35:09.438Z,967.83
2019-05-07T09:36:09.433Z,967.84
2019-05-07T09:37:09.345Z,967.84
2019-05-07T09:38:09.294Z,967.81
2019-05-07T09:39:09.248Z,967.79
2019-05-07T09:40:09.248Z,967.76
2019-05-07T09:41:09.154Z,967.78
2019-05-07T09:42:09.105Z,967.78
2019-05-07T09:43:09.063Z,967.77
2019-05-07T09:44:09.010Z,967.69
2019-05-07T09:45:09.008Z,967.71
2019-05-07T09:46:08.968Z,967.69
2019-05-07T09:47:08.869Z,967.70
2019-05-07T09:48:08.824Z,967.69
2019-05-07T09:49:08.774Z,967.67
2019-05-07T09:50:09.086Z,967.68
2019-05-07T09:51:08.720Z,967.67
2019-05-07T09:52:08.678Z,967.68
2019-05-07T09:53:08.583Z,967.69
2019-05-07T09:54:08.538Z,967.69
2019-05-07T09:55:16.632Z,967.70
2019-05-07T09:56:08.438Z,967.73
2019-05-07T09:57:22.749Z,967.77
2019-05-07T09:58:08.343Z,967.73
2019-05-07T09:59:08.300Z,967.79
2019-05-07T10:00:08.242Z,967.76
2019-05-07T10:01:08.197Z,967.72
2019-05-07T10:02:08.179Z,967.72
2019-05-07T10:03:08.098Z,967.70
2019-05-07T10:04:08.058Z,967.69
2019-05-07T10:05:08.008Z,967.66
2019-05-07T10:06:07.962Z,967.64
2019-05-07T10:07:07.936Z,967.59
2019-05-07T10:08:07.856Z,967.65
2019-05-07T10:09:07.811Z,967.63
2019-05-07T10:10:07.764Z,967.57
2019-05-07T10:11:07.714Z,967.58
2019-05-07T10:12:07.700Z,967.60
2019-05-07T10:13:07.619Z,967.63
2019-05-07T10:14:07.571Z,967.67
2019-05-07T10:15:07.523Z,967.65
2019-05-07T10:16:07.858Z,967.66
2019-05-07T10:17:07.456Z,967.63
2019-05-07T10:18:07.379Z,967.61
2019-05-07T10:19:07.366Z,967.63
2019-05-07T10:20:18.132Z,967.59
2019-05-07T10:21:07.234Z,967.60
2019-05-07T10:22:07.183Z,967.62
2019-05-07T10:23:07.136Z,967.60
2019-05-07T10:24:07.122Z,967.61
2019-05-07T10:25:07.070Z,967.58
2019-05-07T10:26:06.988Z,967.57
2019-05-07T10:27:06.938Z,967.55
2019-05-07T10:28:06.923Z,967.60
2019-05-07T10:29:06.843Z,967.63
2019-05-07T10:30:06.793Z,967.64
2019-05-07T10:31:06.806Z,967.59
2019-05-07T10:32:06.697Z,967.68
2019-05-07T10:33:06.651Z,967.61
2019-05-07T10:34:06.608Z,967.61
2019-05-07T10:35:06.549Z,967.62
2019-05-07T10:36:06.539Z,967.60
2019-05-07T10:37:06.455Z,967.58
2019-05-07T10:38:06.401Z,967.56
2019-05-07T10:39:06.356Z,967.55
2019-05-07T10:40:06.302Z,967.56
2019-05-07T10:41:06.299Z,967.54
2019-05-07T10:42:06.215Z,967.58
2019-05-07T10:43:06.154Z,967.66
2019-05-07T10:44:06.103Z,967.69
2019-05-07T10:45:06.055Z,967.64
2019-05-07T10:46:06.048Z,967.59
2019-05-07T10:47:05.959Z,967.61
2019-05-07T10:48:05.906Z,967.62
2019-05-07T10:49:05.857Z,967.63
2019-05-07T10:50:05.808Z,967.64
2019-05-07T10:51:05.805Z,967.59
2019-05-07T10:52:05.707Z,967.60
2019-05-07T10:53:05.657Z,967.57
2019-05-07T10:54:05.608Z,967.56
2019-05-07T10:55:05.560Z,967.57
2019-05-07T10:56:05.544Z,967.55
2019-05-07T10:57:05.456Z,967.57
2019-05-07T10:58:05.440Z,967.59
2019-05-07T10:59:05.360Z,967.57
2019-05-07T11:00:05.312Z,967.57
2019-05-07T11:01:05.260Z,967.55
2019-05-07T11:02:05.211Z,967.57
2019-05-07T11:03:05.208Z,967.56
2019-05-07T11:04:05.111Z,967.53
2019-05-07T11:05:05.064Z,967.51
2019-05-07T11:06:05.012Z,967.52
2019-05-07T11:07:04.963Z,967.54
2019-05-07T11:08:04.953Z,967.52
2019-05-07T11:09:04.865Z,967.51
2019-05-07T11:10:04.816Z,967.50
2019-05-07T11:11:04.767Z,967.45
2019-05-07T11:12:04.714Z,967.41
2019-05-07T11:13:04.705Z,967.40
2019-05-07T11:14:04.621Z,967.43
2019-05-07T11:15:04.572Z,967.38
2019-05-07T11:16:04.528Z,967.40
2019-05-07T11:17:04.474Z,967.37
2019-05-07T11:18:04.455Z,967.36
2019-05-07T11:19:04.411Z,967.37
2019-05-07T11:20:04.328Z,967.38
2019-05-07T11:21:04.274Z,967.32
2019-05-07T11:22:04.228Z,967.33
2019-05-07T11:23:04.209Z,967.31
2019-05-07T11:24:04.182Z,967.32
2019-05-07T11:25:04.075Z,967.42
2019-05-07T11:26:04.030Z,967.40
2019-05-07T11:27:03.978Z,967.36
2019-05-07T11:28:03.930Z,967.38
2019-05-07T11:29:03.912Z,967.42
2019-05-07T11:30:03.838Z,967.37
2019-05-07T11:31:03.820Z,967.24
2019-05-07T11:32:03.731Z,967.24
2019-05-07T11:33:03.687Z,967.22
2019-05-07T11:34:03.639Z,967.19
2019-05-07T11:35:03.590Z,967.18
2019-05-07T11:36:03.577Z,967.15
2019-05-07T11:37:03.491Z,967.15
2019-05-07T11:38:17.437Z,967.09
2019-05-07T11:39:03.392Z,967.12
2019-05-07T11:40:03.342Z,967.13
2019-05-07T11:41:03.325Z,967.17
2019-05-07T11:42:03.245Z,967.12
2019-05-07T11:43:03.195Z,967.15
2019-05-07T11:44:03.192Z,967.10
2019-05-07T11:45:03.095Z,967.11
2019-05-07T11:46:03.090Z,967.10
2019-05-07T11:47:03.246Z,967.10
2019-05-07T11:48:04.360Z,967.09
2019-05-07T11:49:02.899Z,967.06
2019-05-07T11:50:03.281Z,967.05
2019-05-07T11:51:04.336Z,967.07
2019-05-07T11:52:02.749Z,967.13
2019-05-07T11:53:02.700Z,967.08
2019-05-07T11:54:02.651Z,967.12
2019-05-07T11:55:03.123Z,967.10
2019-05-07T11:56:02.727Z,967.11
2019-05-07T11:57:02.738Z,967.10
2019-05-07T11:58:02.579Z,967.09
2019-05-07T11:59:02.688Z,967.11
2019-05-07T12:00:02.887Z,967.07
2019-05-07T12:01:03.956Z,967.08
2019-05-07T12:02:02.251Z,967.06
2019-05-07T12:03:02.372Z,967.05
2019-05-07T12:04:02.174Z,967.00
2019-05-07T12:05:02.319Z,967.05
2019-05-07T12:06:02.277Z,967.01
2019-05-07T12:07:02.671Z,967.02
2019-05-07T12:08:02.388Z,967.01
2019-05-07T12:09:03.027Z,967.01
2019-05-07T12:10:04.773Z,966.97
2019-05-07T12:11:02.310Z,967.01
2019-05-07T12:12:02.428Z,966.91
2019-05-07T12:13:02.391Z,966.93
2019-05-07T12:14:02.018Z,966.92
2019-05-07T12:15:02.482Z,966.89
2019-05-07T12:16:03.013Z,966.92
2019-05-07T12:17:02.723Z,966.94
2019-05-07T12:18:03.041Z,966.92
2019-05-07T12:19:02.216Z,966.98
2019-05-07T12:20:02.414Z,966.91
2019-05-07T12:21:03.812Z,966.92
2019-05-07T12:22:02.710Z,966.92
2019-05-07T12:23:02.791Z,966.87
2019-05-07T12:24:02.167Z,966.90
2019-05-07T12:25:02.612Z,966.89
2019-05-07T12:26:02.292Z,966.88
2019-05-07T12:27:02.656Z,966.88
2019-05-07T12:28:02.460Z,966.92